createdAt,value
2018-10-03T00:01:10.431Z,10.80
2018-10-03T00:03:37.812Z,10.80
2018-10-03T00:06:05.008Z,10.80
2018-10-03T00:08:32.160Z,10.80
2018-10-03T00:10:59.817Z,10.80
2018-10-03T00:13:26.921Z,10.80
2018-10-03T00:15:54.193Z,10.80
2018-10-03T00:18:21.326Z,10.80
2018-10-03T00:20:48.621Z,10.80
2018-10-03T00:23:15.759Z,10.80
2018-10-03T00:25:42.976Z,10.80
2018-10-03T00:28:10.092Z,10.80
2018-10-03T00:30:37.310Z,10.80
2018-10-03T00:33:04.617Z,10.90
2018-10-03T00:35:31.725Z,10.90
2018-10-03T00:37:58.931Z,10.80
2018-10-03T00:40:26.079Z,10.80
2018-10-03T00:42:53.220Z,10.80
2018-10-03T00:45:20.428Z,10.80
2018-10-03T00:47:47.551Z,10.80
2018-10-03T00:50:14.670Z,10.80
2018-10-03T00:52:41.766Z,10.90
2018-10-03T00:55:09.017Z,10.90
2018-10-03T00:57:45.580Z,10.90
2018-10-03T01:00:12.700Z,10.90
2018-10-03T01:02:39.826Z,11.00
2018-10-03T01:05:07.019Z,10.90
2018-10-03T01:07:35.103Z,10.90
2018-10-03T01:10:02.541Z,11.00
2018-10-03T01:12:29.642Z,10.90
2018-10-03T01:14:56.759Z,11.00
2018-10-03T01:17:23.941Z,11.00
2018-10-03T01:19:51.034Z,11.00
2018-10-03T01:22:18.160Z,11.00
2018-10-03T01:24:45.274Z,11.00
2018-10-03T01:27:12.516Z,10.90
2018-10-03T01:29:39.622Z,10.90
2018-10-03T01:32:06.729Z,11.00
2018-10-03T01:34:33.900Z,10.90
2018-10-03T01:37:02.041Z,11.00
2018-10-03T01:39:30.021Z,10.90
2018-10-03T01:41:57.125Z,11.00
2018-10-03T01:44:24.297Z,10.90
2018-10-03T01:46:51.433Z,10.90
2018-10-03T01:49:25.263Z,10.90
2018-10-03T01:51:52.457Z,10.90
2018-10-03T01:54:19.542Z,10.90
2018-10-03T01:56:46.630Z,11.00
2018-10-03T01:59:13.740Z,11.00
2018-10-03T02:01:40.870Z,11.00
2018-10-03T02:04:07.989Z,11.00
2018-10-03T02:06:35.073Z,11.00
2018-10-03T02:09:02.332Z,11.10
2018-10-03T02:11:29.467Z,11.10
2018-10-03T02:13:56.590Z,11.10
2018-10-03T02:16:23.717Z,11.10
2018-10-03T02:18:50.924Z,11.10
2018-10-03T02:21:18.039Z,11.20
2018-10-03T02:23:45.125Z,11.10
2018-10-03T02:26:12.236Z,11.20
2018-10-03T02:28:39.462Z,11.20
2018-10-03T02:31:06.723Z,11.10
2018-10-03T02:33:33.824Z,11.20
2018-10-03T02:36:01.029Z,11.20
2018-10-03T02:38:28.252Z,11.10
2018-10-03T02:40:55.488Z,11.20
2018-10-03T02:43:22.666Z,11.20
2018-10-03T02:45:49.881Z,11.10
2018-10-03T02:48:17.006Z,11.10
2018-10-03T02:50:44.142Z,11.10
2018-10-03T02:53:11.276Z,11.20
2018-10-03T02:55:38.357Z,11.30
2018-10-03T02:58:05.621Z,11.20
2018-10-03T03:00:32.753Z,11.20
2018-10-03T03:02:59.886Z,11.20
2018-10-03T03:05:27.055Z,11.20
2018-10-03T03:07:54.336Z,11.20
2018-10-03T03:10:21.459Z,11.10
2018-10-03T03:12:48.614Z,11.20
2018-10-03T03:15:15.698Z,11.20
2018-10-03T03:17:42.785Z,11.20
2018-10-03T03:20:10.679Z,11.20
2018-10-03T03:22:37.757Z,11.20
2018-10-03T03:25:04.988Z,11.20
2018-10-03T03:27:32.133Z,11.30
2018-10-03T03:29:59.249Z,11.20
2018-10-03T03:32:26.316Z,11.20
2018-10-03T03:34:53.753Z,11.20
2018-10-03T03:37:28.642Z,11.20
2018-10-03T03:39:55.718Z,11.20
2018-10-03T03:42:22.927Z,11.20
2018-10-03T03:44:50.042Z,11.20
2018-10-03T03:47:18.270Z,11.20
2018-10-03T03:49:45.433Z,11.20
2018-10-03T03:52:12.501Z,11.20
2018-10-03T03:54:39.623Z,11.20
2018-10-03T03:57:06.720Z,11.30
2018-10-03T03:59:33.861Z,11.30
2018-10-03T04:02:01.045Z,11.30
2018-10-03T04:04:28.144Z,11.30
2018-10-03T04:06:55.288Z,11.30
2018-10-03T04:09:22.757Z,11.30
2018-10-03T04:11:49.816Z,11.30
2018-10-03T04:14:16.940Z,11.30
2018-10-03T04:16:44.237Z,11.30
2018-10-03T04:19:11.393Z,11.30
2018-10-03T04:21:39.472Z,11.40
2018-10-03T04:24:07.960Z,11.40
2018-10-03T04:26:35.099Z,11.30
2018-10-03T04:29:02.677Z,11.30
2018-10-03T04:31:30.137Z,11.40
2018-10-03T04:33:57.255Z,11.30
2018-10-03T04:36:31.416Z,11.30
2018-10-03T04:38:58.549Z,11.30
2018-10-03T04:41:25.665Z,11.30
2018-10-03T04:43:52.849Z,11.30
2018-10-03T04:46:20.336Z,11.30
2018-10-03T04:48:47.431Z,11.40
2018-10-03T04:51:14.580Z,11.40
2018-10-03T04:53:41.684Z,11.40
2018-10-03T04:56:08.824Z,11.30
2018-10-03T04:58:36.104Z,11.30
2018-10-03T05:01:03.263Z,11.30
2018-10-03T05:03:33.847Z,11.30
2018-10-03T05:06:00.966Z,11.30
2018-10-03T05:08:28.182Z,11.20
2018-10-03T05:10:55.355Z,11.20
2018-10-03T05:13:23.589Z,11.20
2018-10-03T05:15:51.242Z,11.20
2018-10-03T05:18:18.402Z,11.20
2018-10-03T05:20:45.513Z,11.20
2018-10-03T05:23:12.622Z,11.10
2018-10-03T05:25:39.707Z,11.10
2018-10-03T05:28:06.875Z,11.10
2018-10-03T05:30:33.998Z,11.10
2018-10-03T05:33:01.162Z,11.10
2018-10-03T05:35:28.278Z,11.10
2018-10-03T05:38:01.999Z,11.10
2018-10-03T05:40:29.081Z,11.20
2018-10-03T05:42:56.194Z,11.20
2018-10-03T05:45:23.396Z,11.20
2018-10-03T05:47:50.519Z,11.20
2018-10-03T05:50:17.665Z,11.20
2018-10-03T05:52:44.877Z,11.20
2018-10-03T05:55:11.988Z,11.20
2018-10-03T05:57:42.857Z,11.20
2018-10-03T06:00:10.014Z,11.20
2018-10-03T06:02:37.225Z,11.20
2018-10-03T06:05:04.429Z,11.30
2018-10-03T06:07:31.622Z,11.20
2018-10-03T06:09:58.760Z,11.30
2018-10-03T06:12:26.001Z,11.30
2018-10-03T06:14:53.223Z,11.30
2018-10-03T06:17:20.333Z,11.40
2018-10-03T06:19:47.517Z,11.40
2018-10-03T06:22:14.624Z,11.40
2018-10-03T06:24:41.705Z,11.50
2018-10-03T06:27:08.884Z,11.50
2018-10-03T06:29:36.065Z,11.50
2018-10-03T06:32:03.226Z,11.50
2018-10-03T06:34:30.332Z,11.60
2018-10-03T06:36:57.496Z,11.60
2018-10-03T06:39:25.717Z,11.60
2018-10-03T06:41:52.893Z,11.60
2018-10-03T06:44:19.995Z,11.70
2018-10-03T06:46:47.160Z,11.60
2018-10-03T06:49:14.306Z,11.70
2018-10-03T06:51:44.983Z,11.70
2018-10-03T06:54:12.137Z,11.70
2018-10-03T06:56:39.248Z,11.70
2018-10-03T06:59:06.356Z,11.70
2018-10-03T07:01:33.443Z,11.80
2018-10-03T07:04:00.592Z,11.80
2018-10-03T07:06:27.717Z,11.80
2018-10-03T07:08:54.915Z,11.80
2018-10-03T07:11:22.102Z,11.90
2018-10-03T07:13:49.198Z,11.90
2018-10-03T07:16:16.620Z,12.00
2018-10-03T07:18:43.762Z,12.00
2018-10-03T07:21:10.878Z,12.00
2018-10-03T07:23:38.139Z,12.00
2018-10-03T07:26:05.292Z,12.10
2018-10-03T07:28:32.416Z,12.10
2018-10-03T07:30:59.628Z,12.10
2018-10-03T07:33:26.827Z,12.20
2018-10-03T07:35:54.099Z,12.30
2018-10-03T07:38:21.308Z,12.40
2018-10-03T07:40:48.444Z,12.40
2018-10-03T07:43:15.584Z,12.40
2018-10-03T07:45:42.696Z,12.50
2018-10-03T07:48:13.665Z,12.60
2018-10-03T07:50:40.813Z,12.70
2018-10-03T07:53:07.998Z,12.80
2018-10-03T07:55:35.181Z,12.90
2018-10-03T07:58:02.424Z,13.00
2018-10-03T08:00:30.354Z,13.10
2018-10-03T08:02:58.816Z,13.20
2018-10-03T08:05:26.297Z,13.30
2018-10-03T08:07:53.421Z,13.40
2018-10-03T08:10:20.606Z,13.60
2018-10-03T08:12:47.818Z,13.60
2018-10-03T08:15:15.834Z,13.70
2018-10-03T08:17:42.969Z,13.80
2018-10-03T08:20:10.193Z,13.90
2018-10-03T08:22:37.604Z,14.00
2018-10-03T08:25:05.119Z,14.00
2018-10-03T08:27:35.668Z,14.00
2018-10-03T08:30:02.823Z,14.10
2018-10-03T08:32:30.051Z,14.10
2018-10-03T08:34:57.185Z,14.10
2018-10-03T08:37:24.534Z,14.20
2018-10-03T08:39:51.680Z,14.30
2018-10-03T08:42:18.891Z,14.40
2018-10-03T08:44:45.999Z,14.40
2018-10-03T08:47:13.153Z,14.40
2018-10-03T08:49:42.389Z,14.40
2018-10-03T08:52:09.519Z,14.40
2018-10-03T08:54:36.668Z,14.40
2018-10-03T08:57:03.872Z,14.40
2018-10-03T08:59:30.944Z,14.50
2018-10-03T09:01:58.086Z,14.60
2018-10-03T09:04:25.418Z,14.70
2018-10-03T09:06:52.594Z,14.70
2018-10-03T09:09:19.764Z,14.70
2018-10-03T09:11:46.904Z,14.70
2018-10-03T09:14:13.955Z,14.60
2018-10-03T09:16:41.069Z,14.70
2018-10-03T09:19:08.248Z,14.70
2018-10-03T09:21:35.492Z,14.70
2018-10-03T09:24:02.578Z,14.80
2018-10-03T09:26:29.798Z,14.90
2018-10-03T09:28:56.980Z,14.80
2018-10-03T09:31:24.127Z,14.80
2018-10-03T09:33:51.292Z,14.90
2018-10-03T09:36:18.413Z,14.90
2018-10-03T09:38:45.578Z,14.90
2018-10-03T09:41:12.695Z,14.90
2018-10-03T09:43:39.831Z,15.00
2018-10-03T09:46:07.036Z,15.00
2018-10-03T09:48:34.182Z,15.00
2018-10-03T09:51:01.596Z,15.00
2018-10-03T09:53:28.689Z,14.90
2018-10-03T09:55:56.145Z,14.90
2018-10-03T09:58:23.264Z,14.90
2018-10-03T10:00:56.260Z,15.00
2018-10-03T10:03:23.362Z,15.00
2018-10-03T10:05:50.460Z,15.10
2018-10-03T10:08:17.629Z,15.10
2018-10-03T10:10:44.784Z,15.10
2018-10-03T10:13:12.991Z,15.10
2018-10-03T10:15:40.153Z,15.00
2018-10-03T10:18:07.398Z,15.10
2018-10-03T10:20:34.602Z,15.10
2018-10-03T10:23:01.785Z,15.10
2018-10-03T10:25:28.986Z,15.20
2018-10-03T10:27:56.184Z,15.10
2018-10-03T10:30:23.419Z,15.10
2018-10-03T10:32:50.696Z,15.20
2018-10-03T10:35:17.772Z,15.20
2018-10-03T10:37:45.003Z,15.30
2018-10-03T10:40:12.118Z,15.40
2018-10-03T10:42:39.163Z,15.40
2018-10-03T10:45:06.432Z,15.30
2018-10-03T10:47:33.573Z,15.30
2018-10-03T10:50:00.713Z,15.30
2018-10-03T10:52:27.863Z,15.20
2018-10-03T10:54:55.000Z,15.20
2018-10-03T10:57:22.126Z,15.10
2018-10-03T10:59:49.496Z,15.20
2018-10-03T11:02:16.555Z,15.30
2018-10-03T11:04:43.723Z,15.40
2018-10-03T11:07:10.838Z,15.60
2018-10-03T11:09:38.291Z,15.70
2018-10-03T11:12:05.586Z,15.70
2018-10-03T11:14:32.710Z,15.70
2018-10-03T11:16:59.933Z,15.70
2018-10-03T11:19:26.989Z,15.70
2018-10-03T11:21:54.096Z,15.80
2018-10-03T11:24:21.269Z,16.10
2018-10-03T11:26:48.373Z,16.20
2018-10-03T11:29:15.755Z,16.20
2018-10-03T11:31:42.880Z,16.20
2018-10-03T11:34:10.034Z,16.10
2018-10-03T11:36:37.251Z,16.10
2018-10-03T11:39:06.917Z,16.00
2018-10-03T11:41:34.040Z,16.00
2018-10-03T11:44:01.260Z,16.10
2018-10-03T11:46:28.305Z,16.10
2018-10-03T11:48:55.581Z,16.00
2018-10-03T11:51:22.716Z,16.00
2018-10-03T11:53:49.972Z,15.90
2018-10-03T11:56:17.060Z,15.80
2018-10-03T11:58:44.230Z,15.80
2018-10-03T12:01:11.356Z,15.80
2018-10-03T12:03:38.542Z,15.70
2018-10-03T12:06:05.987Z,15.70
2018-10-03T12:08:33.169Z,15.60
2018-10-03T12:11:01.537Z,15.60
2018-10-03T12:13:28.753Z,15.70
2018-10-03T12:15:55.833Z,15.90
2018-10-03T12:18:23.039Z,16.10
2018-10-03T12:20:50.289Z,16.40
2018-10-03T12:23:17.456Z,16.60
2018-10-03T12:25:44.616Z,16.70
2018-10-03T12:28:15.371Z,16.70
2018-10-03T12:30:42.563Z,16.50
2018-10-03T12:33:10.010Z,16.50
2018-10-03T12:35:37.276Z,16.50
2018-10-03T12:38:04.435Z,16.50
2018-10-03T12:40:32.056Z,16.40
2018-10-03T12:42:59.287Z,16.20
2018-10-03T12:45:27.203Z,16.20
2018-10-03T12:47:55.857Z,16.20
2018-10-03T12:50:23.032Z,16.20
2018-10-03T12:52:50.358Z,16.20
2018-10-03T12:55:17.523Z,16.20
2018-10-03T12:57:45.503Z,16.10
2018-10-03T13:00:12.728Z,16.20
2018-10-03T13:02:40.030Z,16.20
2018-10-03T13:05:07.260Z,16.10
2018-10-03T13:07:34.416Z,16.10
2018-10-03T13:10:02.176Z,16.10
2018-10-03T13:12:29.449Z,16.10
2018-10-03T13:14:56.576Z,16.00
2018-10-03T13:17:23.720Z,16.10
2018-10-03T13:19:50.914Z,16.00
2018-10-03T13:22:18.081Z,16.00
2018-10-03T13:24:45.213Z,16.00
2018-10-03T13:27:16.242Z,15.90
2018-10-03T13:29:43.402Z,16.00
2018-10-03T13:32:17.389Z,16.00
2018-10-03T13:34:44.535Z,16.00
2018-10-03T13:37:11.769Z,16.20
2018-10-03T13:39:38.931Z,16.40
2018-10-03T13:42:06.096Z,16.70
2018-10-03T13:44:35.493Z,16.90
2018-10-03T13:47:02.630Z,16.90
2018-10-03T13:49:29.760Z,16.80
2018-10-03T13:51:56.932Z,16.70
2018-10-03T13:54:24.436Z,16.70
2018-10-03T13:56:51.677Z,16.80
2018-10-03T13:59:18.942Z,16.80
2018-10-03T14:01:46.086Z,16.70
2018-10-03T14:04:13.252Z,16.60
2018-10-03T14:06:40.348Z,16.60
2018-10-03T14:09:08.737Z,16.60
2018-10-03T14:11:35.853Z,16.60
2018-10-03T14:14:03.093Z,16.60
2018-10-03T14:16:30.220Z,16.70
2018-10-03T14:18:57.358Z,16.80
2018-10-03T14:21:24.616Z,16.80
2018-10-03T14:23:51.725Z,16.80
2018-10-03T14:26:18.846Z,16.90
2018-10-03T14:28:46.073Z,17.10
2018-10-03T14:31:19.949Z,17.20
2018-10-03T14:33:47.197Z,17.10
2018-10-03T14:36:14.338Z,17.20
2018-10-03T14:38:41.433Z,17.30
2018-10-03T14:41:08.643Z,17.30
2018-10-03T14:43:35.752Z,17.10
2018-10-03T14:46:02.868Z,17.10
2018-10-03T14:48:30.274Z,17.00
2018-10-03T14:50:57.531Z,16.90
2018-10-03T14:53:24.763Z,16.80
2018-10-03T14:55:51.989Z,16.60
2018-10-03T14:58:19.208Z,16.50
2018-10-03T15:00:46.470Z,16.50
2018-10-03T15:03:13.691Z,16.50
2018-10-03T15:05:47.627Z,16.40
2018-10-03T15:08:14.809Z,16.40
2018-10-03T15:10:41.968Z,16.30
2018-10-03T15:13:09.157Z,16.40
2018-10-03T15:15:36.358Z,16.40
2018-10-03T15:18:03.656Z,16.40
2018-10-03T15:20:30.765Z,16.40
2018-10-03T15:22:57.887Z,16.40
2018-10-03T15:25:31.880Z,16.30
2018-10-03T15:27:59.034Z,16.20
2018-10-03T15:30:26.346Z,16.20
2018-10-03T15:32:53.578Z,16.10
2018-10-03T15:35:20.840Z,16.00
2018-10-03T15:37:49.016Z,15.90
2018-10-03T15:40:16.233Z,15.90
2018-10-03T15:42:43.466Z,15.80
2018-10-03T15:45:10.673Z,15.70
2018-10-03T15:47:44.760Z,15.70
2018-10-03T15:50:12.100Z,15.80
2018-10-03T15:52:39.285Z,15.80
2018-10-03T15:55:06.664Z,15.80
2018-10-03T15:57:33.852Z,15.80
2018-10-03T16:00:01.059Z,15.90
2018-10-03T16:02:28.291Z,15.90
2018-10-03T16:04:59.125Z,15.90
2018-10-03T16:07:26.367Z,15.90
2018-10-03T16:09:53.543Z,15.70
2018-10-03T16:12:20.858Z,15.60
2018-10-03T16:14:48.104Z,15.60
2018-10-03T16:17:15.386Z,15.60
2018-10-03T16:19:42.712Z,15.60
2018-10-03T16:22:10.037Z,15.50
2018-10-03T16:24:37.277Z,15.50
2018-10-03T16:27:04.490Z,15.40
2018-10-03T16:29:31.692Z,15.40
2018-10-03T16:31:58.913Z,15.30
2018-10-03T16:34:26.094Z,15.20
2018-10-03T16:36:54.395Z,15.30
2018-10-03T16:39:21.604Z,15.50
2018-10-03T16:41:48.788Z,15.60
2018-10-03T16:44:15.958Z,15.50
2018-10-03T16:46:43.150Z,15.30
2018-10-03T16:49:10.371Z,15.10
2018-10-03T16:51:37.607Z,15.10
2018-10-03T16:54:04.971Z,15.00
2018-10-03T16:56:32.418Z,15.00
2018-10-03T16:58:59.666Z,14.90
2018-10-03T17:01:27.037Z,14.90
2018-10-03T17:03:54.403Z,14.90
2018-10-03T17:06:21.662Z,14.80
2018-10-03T17:08:48.941Z,14.80
2018-10-03T17:11:16.084Z,14.80
2018-10-03T17:14:14.926Z,14.80
2018-10-03T17:16:42.113Z,14.70
2018-10-03T17:19:09.269Z,15.00
2018-10-03T17:21:36.681Z,15.10
2018-10-03T17:24:03.871Z,14.90
2018-10-03T17:26:31.366Z,14.80
2018-10-03T17:28:58.592Z,14.70
2018-10-03T17:31:27.001Z,14.70
2018-10-03T17:33:54.222Z,14.60
2018-10-03T17:36:21.530Z,14.60
2018-10-03T17:38:48.921Z,14.50
2018-10-03T17:41:16.376Z,14.50
2018-10-03T17:43:44.319Z,14.50
2018-10-03T17:46:12.221Z,14.40
2018-10-03T17:48:39.776Z,14.40
2018-10-03T17:51:07.572Z,14.30
2018-10-03T17:53:34.984Z,14.30
2018-10-03T17:56:02.655Z,14.20
2018-10-03T17:58:30.005Z,14.20
2018-10-03T18:00:57.513Z,14.10
2018-10-03T18:03:25.901Z,14.10
2018-10-03T18:05:53.110Z,14.10
2018-10-03T18:08:21.512Z,14.10
2018-10-03T18:10:48.739Z,14.00
2018-10-03T18:13:16.231Z,14.00
2018-10-03T18:15:43.551Z,14.00
2018-10-03T18:18:10.835Z,13.90
2018-10-03T18:20:42.356Z,14.00
2018-10-03T18:23:09.638Z,13.90
2018-10-03T18:25:37.329Z,13.90
2018-10-03T18:28:05.079Z,13.80
2018-10-03T18:30:32.434Z,13.90
2018-10-03T18:32:59.697Z,13.80
2018-10-03T18:35:27.191Z,13.80
2018-10-03T18:37:54.540Z,13.80
2018-10-03T18:40:21.803Z,13.70
2018-10-03T18:42:49.068Z,13.60
2018-10-03T18:45:16.617Z,13.50
2018-10-03T18:47:44.034Z,13.50
2018-10-03T18:50:12.146Z,13.50
2018-10-03T18:52:39.445Z,13.50
2018-10-03T18:55:06.846Z,13.50
2018-10-03T18:57:34.258Z,13.50
2018-10-03T19:00:01.889Z,13.50
2018-10-03T19:02:29.254Z,13.50
2018-10-03T19:04:56.722Z,13.50
2018-10-03T19:07:24.034Z,13.40
2018-10-03T19:09:51.358Z,13.30
2018-10-03T19:12:18.835Z,13.30
2018-10-03T19:14:46.300Z,13.30
2018-10-03T19:17:13.749Z,13.20
2018-10-03T19:19:42.109Z,13.20
2018-10-03T19:22:10.180Z,13.10
2018-10-03T19:24:37.494Z,13.10
2018-10-03T19:27:04.824Z,13.10
2018-10-03T19:29:32.104Z,13.10
2018-10-03T19:31:59.549Z,13.10
2018-10-03T19:34:27.056Z,13.10
2018-10-03T19:36:54.396Z,13.10
2018-10-03T19:39:22.368Z,13.10
2018-10-03T19:41:49.620Z,13.10
2018-10-03T19:44:17.004Z,13.10
2018-10-03T19:46:44.418Z,13.10
2018-10-03T19:49:12.485Z,13.00
2018-10-03T19:51:39.940Z,13.00
2018-10-03T19:54:07.699Z,12.90
2018-10-03T19:56:35.019Z,12.80
2018-10-03T19:59:02.326Z,12.80
2018-10-03T20:01:29.708Z,12.70
2018-10-03T20:03:57.131Z,12.70
2018-10-03T20:06:25.354Z,12.60
2018-10-03T20:08:52.681Z,12.60
2018-10-03T20:11:19.984Z,12.50
2018-10-03T20:13:47.200Z,12.50
2018-10-03T20:16:14.539Z,12.60
2018-10-03T20:18:41.869Z,12.70
2018-10-03T20:21:09.169Z,12.70
2018-10-03T20:23:37.325Z,12.70
2018-10-03T20:26:04.611Z,12.80
2018-10-03T20:28:31.833Z,12.70
2018-10-03T20:30:59.128Z,12.70
2018-10-03T20:33:26.762Z,12.70
2018-10-03T20:35:54.200Z,12.70
2018-10-03T20:38:21.458Z,12.70
2018-10-03T20:40:48.953Z,12.70
2018-10-03T20:43:16.338Z,12.70
2018-10-03T20:45:44.035Z,12.70
2018-10-03T20:48:12.063Z,12.70
2018-10-03T20:50:39.365Z,12.70
2018-10-03T20:53:06.770Z,12.60
2018-10-03T20:55:34.116Z,12.50
2018-10-03T20:58:01.413Z,12.40
2018-10-03T21:00:28.763Z,12.40
2018-10-03T21:03:02.127Z,12.30
2018-10-03T21:05:29.329Z,12.30
2018-10-03T21:07:56.546Z,12.20
2018-10-03T21:10:24.381Z,12.20
2018-10-03T21:12:51.621Z,12.10
2018-10-03T21:15:18.857Z,12.10
2018-10-03T21:17:46.102Z,12.00
2018-10-03T21:20:13.255Z,11.90
2018-10-03T21:22:40.460Z,11.90
2018-10-03T21:25:08.683Z,11.90
2018-10-03T21:27:35.916Z,11.90
2018-10-03T21:30:04.366Z,11.80
2018-10-03T21:32:31.679Z,11.70
2018-10-03T21:34:58.870Z,11.70
2018-10-03T21:37:26.137Z,11.70
2018-10-03T21:39:53.470Z,11.70
2018-10-03T21:42:22.135Z,11.70
2018-10-03T21:44:53.727Z,11.70
2018-10-03T21:47:20.912Z,11.60
2018-10-03T21:49:48.585Z,11.70
2018-10-03T21:52:15.826Z,11.70
2018-10-03T21:54:43.097Z,11.70
2018-10-03T21:57:11.324Z,11.60
2018-10-03T21:59:38.606Z,11.50
2018-10-03T22:02:05.835Z,11.50
2018-10-03T22:04:33.144Z,11.60
2018-10-03T22:07:00.484Z,11.60
2018-10-03T22:09:27.778Z,11.50
2018-10-03T22:11:55.115Z,11.50
2018-10-03T22:14:22.754Z,11.50
2018-10-03T22:16:49.999Z,11.50
2018-10-03T22:19:18.333Z,11.30
2018-10-03T22:21:45.649Z,11.30
2018-10-03T22:24:12.914Z,11.20
2018-10-03T22:26:40.113Z,11.10
2018-10-03T22:29:07.945Z,11.10
2018-10-03T22:31:35.160Z,11.00
2018-10-03T22:34:02.346Z,10.90
2018-10-03T22:36:29.653Z,10.90
2018-10-03T22:38:56.943Z,10.90
2018-10-03T22:41:24.369Z,10.80
2018-10-03T22:43:56.946Z,10.70
2018-10-03T22:46:24.298Z,10.60
2018-10-03T22:48:51.636Z,10.60
2018-10-03T22:51:18.997Z,10.50
2018-10-03T22:53:46.188Z,10.50
2018-10-03T22:56:13.364Z,10.50
2018-10-03T22:58:41.630Z,10.50
2018-10-03T23:01:08.848Z,10.50
2018-10-03T23:03:36.079Z,10.60
2018-10-03T23:06:03.463Z,10.60
2018-10-03T23:08:30.654Z,10.60
2018-10-03T23:10:58.063Z,10.60
2018-10-03T23:13:25.455Z,10.60
2018-10-03T23:15:52.694Z,10.60
2018-10-03T23:18:19.937Z,10.50
2018-10-03T23:20:47.192Z,10.60
2018-10-03T23:23:14.428Z,10.60
2018-10-03T23:25:46.201Z,10.60
2018-10-03T23:28:13.376Z,10.60
2018-10-03T23:30:40.549Z,10.70
2018-10-03T23:33:07.821Z,10.70
2018-10-03T23:35:35.061Z,10.70
2018-10-03T23:38:02.370Z,10.70
2018-10-03T23:40:29.506Z,10.70
2018-10-03T23:42:56.731Z,10.70
2018-10-03T23:45:23.964Z,10.70
2018-10-03T23:47:51.089Z,10.70
2018-10-03T23:50:18.284Z,10.70
2018-10-03T23:52:45.460Z,10.60
2018-10-03T23:55:12.726Z,10.60
2018-10-03T23:57:39.935Z,10.60
